createdAt,value
2023-03-06T00:00:25.362Z,15.73
2023-03-06T00:02:58.700Z,14.63
2023-03-06T00:05:27.534Z,15.17
2023-03-06T00:07:55.898Z,17.60
2023-03-06T00:10:27.034Z,18.57
2023-03-06T00:13:08.447Z,13.43
2023-03-06T00:15:36.930Z,18.67
2023-03-06T00:18:06.125Z,17.00
2023-03-06T00:20:35.530Z,16.27
2023-03-06T00:23:04.027Z,15.90
2023-03-06T00:25:32.573Z,17.30
2023-03-06T00:28:00.862Z,13.53
2023-03-06T00:30:30.598Z,12.67
2023-03-06T00:32:58.927Z,15.70
2023-03-06T00:35:27.234Z,13.57
2023-03-06T00:37:55.601Z,16.77
2023-03-06T00:40:24.023Z,20.13
2023-03-06T00:42:52.340Z,15.23
2023-03-06T00:45:20.873Z,16.93
2023-03-06T00:47:50.543Z,14.03
2023-03-06T00:50:18.950Z,17.93
2023-03-06T00:52:47.368Z,18.23
2023-03-06T00:55:15.769Z,16.73
2023-03-06T00:57:44.107Z,21.27
2023-03-06T01:00:14.255Z,17.10
2023-03-06T01:02:42.873Z,18.70
2023-03-06T01:05:14.812Z,17.80
2023-03-06T01:07:43.223Z,16.53
2023-03-06T01:10:13.126Z,19.60
2023-03-06T01:12:51.398Z,17.83
2023-03-06T01:15:19.867Z,17.63
2023-03-06T01:17:57.002Z,17.63
2023-03-06T01:20:26.766Z,19.57
2023-03-06T01:22:56.628Z,19.53
2023-03-06T01:25:25.862Z,19.20
2023-03-06T01:27:58.700Z,18.93
2023-03-06T01:30:27.051Z,19.97
2023-03-06T01:32:55.404Z,18.53
2023-03-06T01:35:23.998Z,19.17
2023-03-06T01:37:54.406Z,17.73
2023-03-06T01:40:22.928Z,15.40
2023-03-06T01:42:51.911Z,14.07
2023-03-06T01:45:57.398Z,14.10
2023-03-06T01:48:26.369Z,15.07
2023-03-06T01:50:55.414Z,17.67
2023-03-06T01:53:26.407Z,15.17
2023-03-06T01:55:55.182Z,17.57
2023-03-06T01:58:23.806Z,17.20
2023-03-06T02:00:52.182Z,18.43
2023-03-06T02:03:24.651Z,18.10
2023-03-06T02:05:53.033Z,18.83
2023-03-06T02:08:24.274Z,19.33
2023-03-06T02:11:03.336Z,17.40
2023-03-06T02:13:32.139Z,19.23
2023-03-06T02:16:00.516Z,20.77
2023-03-06T02:18:29.655Z,25.57
2023-03-06T02:21:00.171Z,18.37
2023-03-06T02:23:34.594Z,17.37
2023-03-06T02:26:05.785Z,18.97
2023-03-06T02:28:34.259Z,17.10
2023-03-06T02:31:02.764Z,20.73
2023-03-06T02:33:31.276Z,22.80
2023-03-06T02:36:02.369Z,19.73
2023-03-06T02:38:35.635Z,20.77
2023-03-06T02:41:08.179Z,21.43
2023-03-06T02:43:40.750Z,16.10
2023-03-06T02:46:09.280Z,18.90
2023-03-06T02:48:37.626Z,17.60
2023-03-06T02:51:06.165Z,23.33
2023-03-06T02:53:34.598Z,18.07
2023-03-06T02:56:03.236Z,18.77
2023-03-06T02:58:32.915Z,18.90
2023-03-06T03:01:01.269Z,21.07
2023-03-06T03:03:29.726Z,15.07
2023-03-06T03:05:58.057Z,21.30
2023-03-06T03:08:26.424Z,18.20
2023-03-06T03:10:56.246Z,18.83
2023-03-06T03:13:24.785Z,19.07
2023-03-06T03:16:01.903Z,20.47
2023-03-06T03:18:30.648Z,16.23
2023-03-06T03:20:59.179Z,17.57
2023-03-06T03:23:28.270Z,18.30
2023-03-06T03:25:56.622Z,19.73
2023-03-06T03:28:24.942Z,21.63
2023-03-06T03:30:55.166Z,18.97
2023-03-06T03:33:24.812Z,20.30
2023-03-06T03:35:58.057Z,20.60
2023-03-06T03:38:26.556Z,19.37
2023-03-06T03:40:54.854Z,20.40
2023-03-06T03:43:23.647Z,21.20
2023-03-06T03:45:53.789Z,20.87
2023-03-06T03:48:22.446Z,17.17
2023-03-06T03:50:52.101Z,21.53
2023-03-06T03:53:20.391Z,19.23
2023-03-06T03:55:49.794Z,20.93
2023-03-06T03:58:18.124Z,16.83
2023-03-06T04:00:47.188Z,20.73
2023-03-06T04:03:15.501Z,20.17
2023-03-06T04:05:43.874Z,21.77
2023-03-06T04:08:13.578Z,17.53
2023-03-06T04:10:41.890Z,22.53
2023-03-06T04:13:10.329Z,18.20
2023-03-06T04:15:38.609Z,21.03
2023-03-06T04:18:07.013Z,26.93
2023-03-06T04:20:35.274Z,24.53
2023-03-06T04:23:03.551Z,21.43
2023-03-06T04:25:33.273Z,21.07
2023-03-06T04:28:01.627Z,21.80
2023-03-06T04:30:29.888Z,23.50
2023-03-06T04:32:58.517Z,24.53
2023-03-06T04:35:27.325Z,21.87
2023-03-06T04:37:55.761Z,26.83
2023-03-06T04:40:28.626Z,21.67
2023-03-06T04:43:00.042Z,22.37
2023-03-06T04:45:29.891Z,19.23
2023-03-06T04:47:58.325Z,20.50
2023-03-06T04:50:28.342Z,24.07
2023-03-06T04:52:56.706Z,20.77
2023-03-06T04:55:25.060Z,25.73
2023-03-06T04:57:53.439Z,21.90
2023-03-06T05:00:29.415Z,18.47
2023-03-06T05:03:07.680Z,19.37
2023-03-06T05:05:36.180Z,22.80
2023-03-06T05:08:04.797Z,31.87
2023-03-06T05:10:33.151Z,17.97
2023-03-06T05:13:01.508Z,19.50
2023-03-06T05:15:31.320Z,23.40
2023-03-06T05:18:01.669Z,19.37
2023-03-06T05:20:30.056Z,19.37
2023-03-06T05:22:58.861Z,23.97
2023-03-06T05:25:27.231Z,26.90
2023-03-06T05:27:59.144Z,20.67
2023-03-06T05:30:27.474Z,18.70
2023-03-06T05:32:57.162Z,18.93
2023-03-06T05:35:25.482Z,23.30
2023-03-06T05:37:53.900Z,22.20
2023-03-06T05:40:22.634Z,24.83
2023-03-06T05:42:50.985Z,20.47
2023-03-06T05:45:19.764Z,23.47
2023-03-06T05:47:48.150Z,21.93
2023-03-06T05:50:18.128Z,23.57
2023-03-06T05:52:46.633Z,21.47
2023-03-06T05:55:15.610Z,20.30
2023-03-06T05:57:43.948Z,24.37
2023-03-06T06:00:14.858Z,21.63
2023-03-06T06:02:53.395Z,27.30
2023-03-06T06:05:23.518Z,23.43
2023-03-06T06:07:51.901Z,23.37
2023-03-06T06:10:20.537Z,23.53
2023-03-06T06:12:48.848Z,21.00
2023-03-06T06:15:17.572Z,21.57
2023-03-06T06:17:45.978Z,21.13
2023-03-06T06:20:17.272Z,22.40
2023-03-06T06:22:47.053Z,24.43
2023-03-06T06:25:15.456Z,26.63
2023-03-06T06:27:44.473Z,19.70
2023-03-06T06:30:13.870Z,20.87
2023-03-06T06:32:42.232Z,22.00
2023-03-06T06:35:11.042Z,20.10
2023-03-06T06:37:39.382Z,23.73
2023-03-06T06:40:10.762Z,21.23
2023-03-06T06:42:41.149Z,21.17
2023-03-06T06:45:11.362Z,25.23
2023-03-06T06:47:41.695Z,23.80
2023-03-06T06:50:15.216Z,23.37
2023-03-06T06:52:43.567Z,25.97
2023-03-06T06:55:13.931Z,31.53
2023-03-06T06:57:43.261Z,20.50
2023-03-06T07:00:14.801Z,26.50
2023-03-06T07:02:43.162Z,51.83
2023-03-06T07:05:11.917Z,35.73
2023-03-06T07:07:40.256Z,53.57
2023-03-06T07:10:13.374Z,33.40
2023-03-06T07:12:43.368Z,24.67
2023-03-06T07:15:14.427Z,26.50
2023-03-06T07:17:42.999Z,21.97
2023-03-06T07:20:12.931Z,24.07
2023-03-06T07:22:50.937Z,23.23
2023-03-06T07:25:20.888Z,21.27
2023-03-06T07:27:54.037Z,23.57
2023-03-06T07:30:26.454Z,28.33
2023-03-06T07:32:56.187Z,24.87
2023-03-06T07:35:25.953Z,25.03
2023-03-06T07:37:54.836Z,22.60
2023-03-06T07:40:24.018Z,29.97
2023-03-06T07:43:09.166Z,25.50
2023-03-06T07:45:46.915Z,24.73
2023-03-06T07:48:15.384Z,24.83
2023-03-06T07:50:43.742Z,23.70
2023-03-06T07:53:12.344Z,22.43
2023-03-06T07:55:42.405Z,25.23
2023-03-06T07:58:12.096Z,26.63
2023-03-06T08:00:40.477Z,25.13
2023-03-06T08:03:10.985Z,26.30
2023-03-06T08:05:39.705Z,28.23
2023-03-06T08:08:09.423Z,25.40
2023-03-06T08:10:37.967Z,26.20
2023-03-06T08:13:06.409Z,23.70
2023-03-06T08:15:36.229Z,23.63
2023-03-06T08:18:10.422Z,26.70
2023-03-06T08:20:38.856Z,32.47
2023-03-06T08:23:07.284Z,24.73
2023-03-06T08:25:35.692Z,27.90
2023-03-06T08:28:04.426Z,30.50
2023-03-06T08:30:32.791Z,47.97
2023-03-06T08:33:02.554Z,34.20
2023-03-06T08:35:31.022Z,25.73
2023-03-06T08:37:59.389Z,42.13
2023-03-06T08:40:30.533Z,24.53
2023-03-06T08:42:59.180Z,26.60
2023-03-06T08:45:27.698Z,32.23
2023-03-06T08:47:56.303Z,27.67
2023-03-06T08:50:26.062Z,36.90
2023-03-06T08:52:54.440Z,36.37
2023-03-06T08:55:22.838Z,28.33
2023-03-06T08:57:51.232Z,24.03
2023-03-06T09:00:20.498Z,25.87
2023-03-06T09:02:49.730Z,31.23
2023-03-06T09:05:18.389Z,28.33
2023-03-06T09:07:48.268Z,33.93
2023-03-06T09:10:20.752Z,31.00
2023-03-06T09:12:51.999Z,29.77
2023-03-06T09:15:24.232Z,32.33
2023-03-06T09:17:54.205Z,28.97
2023-03-06T09:20:23.745Z,32.57
2023-03-06T09:22:53.806Z,26.53
2023-03-06T09:25:23.307Z,25.77
2023-03-06T09:28:08.716Z,28.23
2023-03-06T09:30:41.571Z,22.50
2023-03-06T09:33:09.980Z,23.37
2023-03-06T09:35:43.827Z,22.97
2023-03-06T09:38:13.972Z,25.90
2023-03-06T09:40:55.083Z,24.67
2023-03-06T09:43:29.518Z,27.87
2023-03-06T09:45:58.340Z,29.33
2023-03-06T09:48:34.178Z,30.13
2023-03-06T09:51:05.607Z,26.23
2023-03-06T09:53:48.843Z,32.40
2023-03-06T09:56:20.469Z,22.33
2023-03-06T09:58:52.927Z,29.67
2023-03-06T10:01:25.715Z,30.03
2023-03-06T10:03:58.808Z,28.40
2023-03-06T10:06:31.986Z,32.60
2023-03-06T10:09:12.897Z,29.13
2023-03-06T10:11:49.633Z,31.53
2023-03-06T10:14:28.431Z,23.47
2023-03-06T10:16:58.525Z,27.93
2023-03-06T10:19:34.246Z,36.47
2023-03-06T10:22:07.240Z,31.63
2023-03-06T10:24:51.278Z,22.53
2023-03-06T10:27:34.383Z,21.90
2023-03-06T10:30:19.137Z,27.17
2023-03-06T10:32:55.788Z,21.97
2023-03-06T10:35:30.814Z,28.03
2023-03-06T10:38:12.513Z,22.30
2023-03-06T10:41:04.955Z,16.40
2023-03-06T10:43:36.700Z,17.07
2023-03-06T10:46:07.297Z,17.13
2023-03-06T10:48:38.501Z,16.57
2023-03-06T10:51:18.918Z,17.30
2023-03-06T10:53:53.774Z,21.80
2023-03-06T10:56:31.986Z,14.83
2023-03-06T10:59:13.073Z,14.13
2023-03-06T11:01:45.103Z,14.40
2023-03-06T11:04:28.959Z,12.27
2023-03-06T11:07:14.319Z,11.97
2023-03-06T11:09:44.191Z,12.20
2023-03-06T11:12:30.267Z,13.00
2023-03-06T11:15:21.061Z,13.03
2023-03-06T11:17:56.265Z,12.53
2023-03-06T11:20:27.032Z,15.40
2023-03-06T11:22:59.606Z,10.53
2023-03-06T11:25:34.772Z,13.30
2023-03-06T11:28:09.455Z,13.03
2023-03-06T11:30:44.730Z,11.13
2023-03-06T11:33:21.023Z,15.23
2023-03-06T11:35:58.967Z,14.67
2023-03-06T11:38:39.942Z,13.43
2023-03-06T11:41:19.880Z,14.70
2023-03-06T11:44:00.676Z,12.77
2023-03-06T11:46:36.179Z,12.60
2023-03-06T11:49:14.804Z,16.83
2023-03-06T11:51:49.339Z,13.17
2023-03-06T11:54:17.670Z,12.73
2023-03-06T11:56:55.164Z,14.37
2023-03-06T11:59:43.368Z,12.53
2023-03-06T12:02:30.371Z,11.30
2023-03-06T12:05:13.286Z,10.80
2023-03-06T12:07:51.261Z,16.10
2023-03-06T12:10:24.466Z,11.93
2023-03-06T12:13:17.576Z,15.33
2023-03-06T12:16:14.765Z,13.97
2023-03-06T12:18:59.466Z,15.07
2023-03-06T12:21:41.630Z,16.73
2023-03-06T12:24:41.866Z,15.87
2023-03-06T12:27:22.288Z,10.67
2023-03-06T12:30:05.189Z,13.93
2023-03-06T12:32:48.995Z,12.10
2023-03-06T12:35:40.295Z,14.50
2023-03-06T12:38:44.908Z,14.17
2023-03-06T12:41:25.499Z,15.20
2023-03-06T12:44:19.270Z,13.33
2023-03-06T12:46:51.284Z,12.47
2023-03-06T12:49:32.558Z,16.70
2023-03-06T12:52:03.656Z,15.07
2023-03-06T12:54:37.681Z,13.63
2023-03-06T12:57:08.610Z,15.17
2023-03-06T12:59:39.790Z,14.67
2023-03-06T13:02:50.619Z,18.03
2023-03-06T13:05:58.821Z,17.37
2023-03-06T13:08:52.848Z,13.07
2023-03-06T13:11:31.560Z,15.63
2023-03-06T13:13:59.992Z,13.27
2023-03-06T13:16:31.816Z,17.50
2023-03-06T13:19:05.229Z,15.63
2023-03-06T13:22:02.378Z,15.83
2023-03-06T13:24:33.918Z,11.37
2023-03-06T13:27:05.863Z,14.07
2023-03-06T13:29:53.453Z,14.80
2023-03-06T13:32:31.853Z,14.10
2023-03-06T13:35:00.321Z,13.37
2023-03-06T13:37:49.860Z,12.50
2023-03-06T13:40:32.640Z,17.27
2023-03-06T13:43:25.084Z,15.47
2023-03-06T13:46:24.803Z,12.17
2023-03-06T13:49:06.937Z,15.20
2023-03-06T13:51:37.344Z,15.30
2023-03-06T13:54:29.173Z,10.87
2023-03-06T13:57:36.132Z,12.00
2023-03-06T14:00:36.365Z,11.87
2023-03-06T14:03:36.122Z,12.67
2023-03-06T14:06:50.637Z,13.57
2023-03-06T14:09:33.502Z,17.97
2023-03-06T14:12:07.754Z,18.93
2023-03-06T14:14:41.243Z,19.97
2023-03-06T14:17:21.564Z,15.37
2023-03-06T14:19:50.678Z,19.03
2023-03-06T14:22:23.465Z,15.20
2023-03-06T14:25:01.901Z,16.17
2023-03-06T14:27:58.200Z,17.70
2023-03-06T14:30:28.841Z,14.67
2023-03-06T14:32:57.403Z,16.93
2023-03-06T14:35:29.605Z,17.90
2023-03-06T14:38:01.675Z,17.67
2023-03-06T14:40:35.053Z,17.00
2023-03-06T14:43:21.622Z,20.30
2023-03-06T14:45:51.541Z,16.83
2023-03-06T14:48:20.398Z,19.30
2023-03-06T14:50:51.788Z,20.43
2023-03-06T14:53:24.033Z,15.43
2023-03-06T14:55:56.122Z,15.63
2023-03-06T14:58:30.978Z,20.63
2023-03-06T15:01:04.572Z,21.47
2023-03-06T15:03:42.973Z,15.53
2023-03-06T15:06:16.836Z,21.77
2023-03-06T15:08:48.548Z,20.23
2023-03-06T15:11:18.417Z,18.73
2023-03-06T15:14:01.851Z,14.93
2023-03-06T15:16:32.392Z,20.13
2023-03-06T15:19:02.499Z,14.40
2023-03-06T15:21:36.531Z,17.37
2023-03-06T15:24:31.659Z,21.80
2023-03-06T15:27:04.177Z,21.60
2023-03-06T15:29:32.905Z,14.43
2023-03-06T15:32:15.451Z,14.83
2023-03-06T15:34:43.932Z,15.13
2023-03-06T15:37:28.080Z,19.37
2023-03-06T15:40:09.183Z,15.87
2023-03-06T15:42:39.121Z,17.33
2023-03-06T15:45:16.882Z,17.30
2023-03-06T15:47:45.880Z,13.27
2023-03-06T15:50:17.202Z,16.37
2023-03-06T15:52:46.008Z,17.73
2023-03-06T15:55:15.168Z,15.10
2023-03-06T15:57:52.413Z,14.83
2023-03-06T16:00:28.329Z,14.07
2023-03-06T16:02:57.294Z,12.37
2023-03-06T16:05:27.105Z,15.07
2023-03-06T16:07:56.365Z,13.77
2023-03-06T16:10:27.008Z,18.50
2023-03-06T16:13:00.768Z,16.60
2023-03-06T16:15:29.947Z,15.17
2023-03-06T16:17:58.794Z,18.17
2023-03-06T16:20:28.674Z,15.17
2023-03-06T16:22:57.312Z,15.83
2023-03-06T16:25:28.613Z,19.90
2023-03-06T16:27:59.593Z,14.27
2023-03-06T16:30:30.792Z,14.70
2023-03-06T16:33:04.041Z,24.70
2023-03-06T16:35:32.463Z,15.83
2023-03-06T16:38:00.974Z,16.43
2023-03-06T16:40:32.475Z,19.73
2023-03-06T16:43:02.138Z,22.43
2023-03-06T16:45:30.599Z,16.40
2023-03-06T16:48:07.125Z,16.10
2023-03-06T16:50:38.681Z,17.53
2023-03-06T16:53:08.086Z,18.57
2023-03-06T16:55:36.517Z,18.33
2023-03-06T16:58:13.790Z,15.37
2023-03-06T17:00:42.465Z,15.33
2023-03-06T17:03:10.832Z,16.80
2023-03-06T17:05:39.545Z,17.67
2023-03-06T17:08:07.882Z,18.53
2023-03-06T17:10:36.411Z,17.03
2023-03-06T17:13:05.175Z,18.03
2023-03-06T17:15:35.000Z,17.57
2023-03-06T17:18:03.391Z,20.17
2023-03-06T17:20:31.751Z,18.40
2023-03-06T17:23:00.099Z,18.93
2023-03-06T17:25:28.425Z,21.10
2023-03-06T17:27:56.785Z,15.70
2023-03-06T17:30:25.121Z,16.07
2023-03-06T17:32:54.792Z,14.97
2023-03-06T17:35:23.291Z,21.37
2023-03-06T17:37:52.455Z,17.27
2023-03-06T17:40:21.019Z,18.77
2023-03-06T17:42:50.651Z,21.57
2023-03-06T17:45:19.026Z,15.13
2023-03-06T17:47:49.053Z,25.40
2023-03-06T17:50:19.176Z,21.73
2023-03-06T17:52:47.532Z,16.90
2023-03-06T17:55:15.883Z,16.80
2023-03-06T17:57:44.216Z,18.20
2023-03-06T18:00:13.373Z,15.60
2023-03-06T18:02:45.412Z,17.67
2023-03-06T18:05:13.866Z,18.00
2023-03-06T18:07:43.905Z,16.80
2023-03-06T18:10:12.538Z,17.47
2023-03-06T18:12:41.036Z,16.80
2023-03-06T18:15:10.383Z,17.47
2023-03-06T18:17:38.876Z,14.30
2023-03-06T18:20:08.027Z,15.30
2023-03-06T18:22:36.402Z,19.23
2023-03-06T18:25:07.015Z,12.60
2023-03-06T18:27:36.023Z,14.57
2023-03-06T18:30:04.892Z,12.10
2023-03-06T18:32:33.519Z,15.27
2023-03-06T18:35:01.935Z,20.77
2023-03-06T18:37:30.298Z,22.07
2023-03-06T18:39:58.655Z,19.43
2023-03-06T18:42:28.476Z,25.60
2023-03-06T18:45:03.807Z,22.77
2023-03-06T18:47:32.220Z,20.63
2023-03-06T18:50:02.503Z,26.83
2023-03-06T18:52:30.891Z,25.30
2023-03-06T18:54:59.201Z,14.90
2023-03-06T18:57:30.422Z,16.00
2023-03-06T18:59:59.239Z,16.63
2023-03-06T19:02:27.649Z,13.93
2023-03-06T19:04:56.202Z,44.70
2023-03-06T19:07:25.286Z,26.87
2023-03-06T19:09:53.714Z,26.30
2023-03-06T19:12:22.149Z,22.87
2023-03-06T19:14:51.929Z,18.93
2023-03-06T19:17:20.425Z,21.80
2023-03-06T19:19:50.708Z,21.87
2023-03-06T19:22:19.177Z,22.20
2023-03-06T19:24:50.011Z,22.47
2023-03-06T19:27:28.258Z,19.57
2023-03-06T19:29:57.967Z,20.83
2023-03-06T19:32:26.340Z,19.93
2023-03-06T19:34:58.603Z,19.80
2023-03-06T19:37:26.997Z,15.33
2023-03-06T19:39:56.872Z,20.60
2023-03-06T19:42:25.290Z,16.07
2023-03-06T19:44:53.610Z,18.57
2023-03-06T19:47:23.496Z,16.10
2023-03-06T19:49:52.034Z,19.37
2023-03-06T19:52:20.392Z,14.43
2023-03-06T19:54:48.721Z,15.30
2023-03-06T19:57:17.295Z,21.17
2023-03-06T19:59:45.649Z,18.90
2023-03-06T20:02:16.090Z,24.73
2023-03-06T20:04:46.671Z,17.40
2023-03-06T20:07:15.017Z,16.60
2023-03-06T20:09:43.357Z,17.27
2023-03-06T20:12:11.657Z,17.73
2023-03-06T20:14:40.008Z,15.63
2023-03-06T20:17:08.809Z,20.83
2023-03-06T20:19:37.800Z,21.20
2023-03-06T20:22:07.582Z,49.77
2023-03-06T20:24:35.905Z,33.07
2023-03-06T20:27:04.524Z,16.13
2023-03-06T20:29:32.875Z,16.43
2023-03-06T20:32:01.397Z,24.50
2023-03-06T20:34:29.918Z,15.87
2023-03-06T20:36:58.281Z,21.33
2023-03-06T20:39:28.094Z,21.17
2023-03-06T20:41:56.507Z,19.57
2023-03-06T20:44:24.798Z,15.27
2023-03-06T20:46:53.741Z,19.90
2023-03-06T20:49:22.612Z,21.17
2023-03-06T20:51:51.047Z,20.87
2023-03-06T20:54:19.441Z,17.60
2023-03-06T20:56:50.758Z,18.23
2023-03-06T20:59:19.330Z,16.67
2023-03-06T21:01:48.221Z,17.60
2023-03-06T21:04:17.359Z,17.37
2023-03-06T21:06:46.973Z,15.93
2023-03-06T21:09:17.575Z,19.60
2023-03-06T21:11:46.448Z,17.70
2023-03-06T21:14:16.295Z,15.40
2023-03-06T21:16:45.563Z,17.17
2023-03-06T21:19:14.060Z,13.37
2023-03-06T21:21:42.732Z,16.37
2023-03-06T21:24:11.187Z,16.23
2023-03-06T21:26:39.544Z,18.33
2023-03-06T21:29:07.844Z,20.20
2023-03-06T21:31:37.590Z,17.00
2023-03-06T21:34:06.328Z,15.50
2023-03-06T21:36:35.146Z,36.93
2023-03-06T21:39:06.507Z,23.70
2023-03-06T21:41:35.574Z,21.13
2023-03-06T21:44:05.675Z,18.60
2023-03-06T21:46:35.280Z,16.93
2023-03-06T21:49:05.699Z,16.60
2023-03-06T21:51:34.788Z,17.23
2023-03-06T21:54:04.046Z,20.07
2023-03-06T21:56:33.530Z,16.60
2023-03-06T21:59:02.064Z,15.77
2023-03-06T22:01:31.083Z,15.10
2023-03-06T22:03:59.962Z,18.57
2023-03-06T22:06:34.992Z,15.03
2023-03-06T22:09:04.995Z,18.13
2023-03-06T22:11:37.059Z,18.20
2023-03-06T22:14:06.243Z,18.70
2023-03-06T22:16:34.734Z,19.57
2023-03-06T22:19:03.218Z,20.00
2023-03-06T22:21:32.952Z,20.20
2023-03-06T22:24:02.213Z,15.13
2023-03-06T22:26:31.601Z,17.00
2023-03-06T22:29:00.506Z,18.77
2023-03-06T22:31:29.733Z,19.80
2023-03-06T22:34:00.119Z,19.00
2023-03-06T22:36:30.227Z,16.50
2023-03-06T22:39:02.256Z,15.47
2023-03-06T22:41:31.550Z,16.37
2023-03-06T22:44:01.523Z,20.30
2023-03-06T22:46:30.840Z,15.13
2023-03-06T22:48:59.909Z,14.67
2023-03-06T22:51:29.826Z,13.27
2023-03-06T22:54:00.105Z,13.70
2023-03-06T22:56:28.581Z,22.37
2023-03-06T22:58:58.024Z,16.90
2023-03-06T23:01:28.982Z,15.20
2023-03-06T23:04:00.285Z,15.60
2023-03-06T23:06:31.804Z,16.40
2023-03-06T23:09:03.980Z,14.73
2023-03-06T23:11:32.927Z,16.53
2023-03-06T23:14:12.120Z,14.03
2023-03-06T23:16:40.851Z,14.63
2023-03-06T23:19:09.278Z,14.77
2023-03-06T23:21:37.909Z,13.83
2023-03-06T23:24:08.475Z,15.97
2023-03-06T23:26:37.108Z,16.13
2023-03-06T23:29:05.492Z,15.13
2023-03-06T23:31:33.983Z,11.83
2023-03-06T23:34:03.872Z,15.97
2023-03-06T23:36:32.178Z,13.93
2023-03-06T23:39:00.676Z,11.67
2023-03-06T23:41:30.530Z,10.87
2023-03-06T23:43:59.656Z,10.90
2023-03-06T23:46:28.131Z,13.87
2023-03-06T23:48:56.467Z,15.07
2023-03-06T23:51:25.113Z,13.53
2023-03-06T23:53:58.333Z,12.40
2023-03-06T23:56:28.358Z,13.40
2023-03-06T23:58:58.183Z,11.13
